createdAt,value
2022-12-19T00:01:27.903Z,1.67
2022-12-19T00:06:26.130Z,1.48
2022-12-19T00:08:53.879Z,2.50
2022-12-19T00:11:22.549Z,2.55
2022-12-19T00:13:49.613Z,2.13
2022-12-19T00:16:22.367Z,2.15
2022-12-19T00:18:50.502Z,2.88
2022-12-19T00:21:24.849Z,3.10
2022-12-19T00:23:52.326Z,3.00
2022-12-19T00:26:23.237Z,2.38
2022-12-19T00:28:52.784Z,2.22
2022-12-19T00:31:21.216Z,2.65
2022-12-19T00:33:49.099Z,3.65
2022-12-19T00:36:22.977Z,2.60
2022-12-19T00:38:51.591Z,2.05
2022-12-19T00:41:21.890Z,2.20
2022-12-19T00:43:54.118Z,2.60
2022-12-19T00:46:21.629Z,3.00
2022-12-19T00:48:48.933Z,2.53
2022-12-19T00:51:21.055Z,2.50
2022-12-19T00:53:50.132Z,1.73
2022-12-19T00:56:19.864Z,2.05
2022-12-19T00:58:47.498Z,2.35
2022-12-19T01:01:20.273Z,2.10
2022-12-19T01:04:18.677Z,2.15
2022-12-19T01:06:34.755Z,2.25
2022-12-19T01:09:02.130Z,2.55
2022-12-19T01:11:47.778Z,2.30
2022-12-19T01:14:22.304Z,2.03
2022-12-19T01:16:50.001Z,2.35
2022-12-19T01:19:16.930Z,2.63
2022-12-19T01:21:43.976Z,2.25
2022-12-19T01:24:11.941Z,2.65
2022-12-19T01:26:38.801Z,2.30
2022-12-19T01:29:05.808Z,2.30
2022-12-19T01:31:33.821Z,2.30
2022-12-19T01:34:01.494Z,2.53
2022-12-19T01:36:29.105Z,2.20
2022-12-19T01:38:57.950Z,2.88
2022-12-19T01:41:25.660Z,2.95
2022-12-19T01:43:55.366Z,2.30
2022-12-19T01:46:27.989Z,2.22
2022-12-19T01:48:57.137Z,2.42
2022-12-19T01:51:27.914Z,2.28
2022-12-19T01:53:58.946Z,2.28
2022-12-19T01:56:32.899Z,2.53
2022-12-19T01:59:05.993Z,2.28
2022-12-19T02:01:35.176Z,1.80
2022-12-19T02:04:07.680Z,2.35
2022-12-19T02:06:35.554Z,2.30
2022-12-19T02:09:02.732Z,2.25
2022-12-19T02:11:29.523Z,2.05
2022-12-19T02:13:56.669Z,2.95
2022-12-19T02:16:35.536Z,2.75
2022-12-19T02:19:12.451Z,2.65
2022-12-19T02:21:49.051Z,2.30
2022-12-19T02:25:01.096Z,2.30
2022-12-19T02:27:43.175Z,2.20
2022-12-19T02:30:14.563Z,2.33
2022-12-19T02:33:01.640Z,2.50
2022-12-19T02:35:31.561Z,2.00
2022-12-19T02:38:06.748Z,2.35
2022-12-19T02:40:53.026Z,3.55
2022-12-19T02:43:24.178Z,2.25
2022-12-19T02:45:52.376Z,2.60
2022-12-19T02:48:20.364Z,2.38
2022-12-19T02:50:49.943Z,4.15
2022-12-19T02:53:18.742Z,9.18
2022-12-19T02:56:15.563Z,9.65
2022-12-19T02:59:04.810Z,10.15
2022-12-19T03:01:45.462Z,8.38
2022-12-19T03:04:31.068Z,7.28
2022-12-19T03:07:31.795Z,4.20
2022-12-19T03:10:24.574Z,3.33
2022-12-19T03:13:01.279Z,6.30
2022-12-19T03:15:28.855Z,3.40
2022-12-19T03:18:00.442Z,3.25
2022-12-19T03:20:50.155Z,4.38
2022-12-19T03:23:17.489Z,2.88
2022-12-19T03:25:48.891Z,2.55
2022-12-19T03:28:42.302Z,2.08
2022-12-19T03:31:11.462Z,2.38
2022-12-19T03:33:41.083Z,2.15
2022-12-19T03:36:13.339Z,2.65
2022-12-19T03:38:41.660Z,2.47
2022-12-19T03:41:14.278Z,2.28
2022-12-19T03:43:44.871Z,2.60
2022-12-19T03:46:20.614Z,2.35
2022-12-19T03:48:50.326Z,2.55
2022-12-19T03:51:17.059Z,2.40
2022-12-19T03:53:59.196Z,2.65
2022-12-19T03:56:26.154Z,2.45
2022-12-19T03:59:01.067Z,2.30
2022-12-19T04:01:29.824Z,2.42
2022-12-19T04:03:59.259Z,2.83
2022-12-19T04:06:30.671Z,2.80
2022-12-19T04:08:59.467Z,2.45
2022-12-19T04:11:30.558Z,2.75
2022-12-19T04:14:10.795Z,2.67
2022-12-19T04:16:45.069Z,3.10
2022-12-19T04:19:19.303Z,3.28
2022-12-19T04:21:51.537Z,3.30
2022-12-19T04:24:32.875Z,3.45
2022-12-19T04:27:02.747Z,3.92
2022-12-19T04:29:33.389Z,4.25
2022-12-19T04:32:02.768Z,4.68
2022-12-19T04:34:33.382Z,4.15
2022-12-19T04:37:00.320Z,5.70
2022-12-19T04:39:28.008Z,5.40
2022-12-19T04:41:55.063Z,6.75
2022-12-19T04:44:22.245Z,7.32
2022-12-19T04:46:49.234Z,5.97
2022-12-19T04:49:16.184Z,7.07
2022-12-19T04:51:42.960Z,8.27
2022-12-19T04:54:09.825Z,8.95
2022-12-19T04:56:36.679Z,9.07
2022-12-19T04:59:03.690Z,10.40
2022-12-19T05:01:30.669Z,11.43
2022-12-19T05:04:02.751Z,11.77
2022-12-19T05:06:31.754Z,14.13
2022-12-19T05:08:58.692Z,14.18
2022-12-19T05:11:25.808Z,14.18
2022-12-19T05:13:52.777Z,14.98
2022-12-19T05:16:19.782Z,16.15
2022-12-19T05:18:47.130Z,15.32
2022-12-19T05:21:14.049Z,17.08
2022-12-19T05:23:41.790Z,17.67
2022-12-19T05:26:09.074Z,19.02
2022-12-19T05:28:36.015Z,18.50
2022-12-19T05:31:05.605Z,18.33
2022-12-19T05:33:32.629Z,18.02
2022-12-19T05:35:59.288Z,17.27
2022-12-19T05:38:26.994Z,16.90
2022-12-19T05:40:54.005Z,17.50
2022-12-19T05:43:21.127Z,18.63
2022-12-19T05:45:47.952Z,16.98
2022-12-19T05:48:14.796Z,16.88
2022-12-19T05:50:41.723Z,16.77
2022-12-19T05:53:09.095Z,16.60
2022-12-19T05:55:35.839Z,17.75
2022-12-19T05:58:02.752Z,18.02
2022-12-19T06:00:29.486Z,16.52
2022-12-19T06:02:56.606Z,16.92
2022-12-19T06:05:23.782Z,17.92
2022-12-19T06:07:50.784Z,16.58
2022-12-19T06:10:17.773Z,17.15
2022-12-19T06:12:44.724Z,16.63
2022-12-19T06:15:12.334Z,17.83
2022-12-19T06:17:39.397Z,17.20
2022-12-19T06:20:06.955Z,18.17
2022-12-19T06:22:35.229Z,16.55
2022-12-19T06:25:02.247Z,17.77
2022-12-19T06:27:29.192Z,17.90
2022-12-19T06:29:56.163Z,18.38
2022-12-19T06:32:23.098Z,16.73
2022-12-19T06:35:05.406Z,16.38
2022-12-19T06:37:32.302Z,17.83
2022-12-19T06:39:58.976Z,15.98
2022-12-19T06:42:25.857Z,17.42
2022-12-19T06:44:55.933Z,18.23
2022-12-19T06:47:24.359Z,16.33
2022-12-19T06:49:51.371Z,17.58
2022-12-19T06:52:18.419Z,15.73
2022-12-19T06:54:45.472Z,16.42
2022-12-19T06:57:12.437Z,16.77
2022-12-19T06:59:39.474Z,16.10
2022-12-19T07:02:12.177Z,16.95
2022-12-19T07:04:47.481Z,15.45
2022-12-19T07:07:14.983Z,15.50
2022-12-19T07:09:42.016Z,16.00
2022-12-19T07:12:08.746Z,15.77
2022-12-19T07:14:35.841Z,15.98
2022-12-19T07:17:03.787Z,15.13
2022-12-19T07:19:32.211Z,16.73
2022-12-19T07:22:01.145Z,16.05
2022-12-19T07:24:28.706Z,15.20
2022-12-19T07:26:56.132Z,15.30
2022-12-19T07:29:23.150Z,16.33
2022-12-19T07:31:49.965Z,16.13
2022-12-19T07:34:17.045Z,13.73
2022-12-19T07:36:43.982Z,15.70
2022-12-19T07:39:11.163Z,14.40
2022-12-19T07:41:38.797Z,15.07
2022-12-19T07:44:07.399Z,14.30
2022-12-19T07:46:34.708Z,14.40
2022-12-19T07:49:01.824Z,15.75
2022-12-19T07:51:28.956Z,13.77
2022-12-19T07:53:55.729Z,15.23
2022-12-19T07:56:22.768Z,14.18
2022-12-19T07:58:50.191Z,14.38
2022-12-19T08:01:17.156Z,15.38
2022-12-19T08:03:44.315Z,13.02
2022-12-19T08:06:11.254Z,13.32
2022-12-19T08:08:38.168Z,14.30
2022-12-19T08:11:10.473Z,14.80
2022-12-19T08:13:43.156Z,13.07
2022-12-19T08:16:13.099Z,12.98
2022-12-19T08:18:40.685Z,12.73
2022-12-19T08:21:08.651Z,13.80
2022-12-19T08:23:35.723Z,13.25
2022-12-19T08:26:05.355Z,11.85
2022-12-19T08:28:37.094Z,11.35
2022-12-19T08:31:07.226Z,11.85
2022-12-19T08:33:34.239Z,11.23
2022-12-19T08:36:08.374Z,9.85
2022-12-19T08:38:35.849Z,10.48
2022-12-19T08:41:03.059Z,9.43
2022-12-19T08:43:30.811Z,10.13
2022-12-19T08:45:59.092Z,10.50
2022-12-19T08:48:26.853Z,10.48
2022-12-19T08:50:57.016Z,10.20
2022-12-19T08:53:26.662Z,9.65
2022-12-19T08:55:59.061Z,8.88
2022-12-19T08:58:27.148Z,9.32
2022-12-19T09:00:58.910Z,9.35
2022-12-19T09:03:35.897Z,8.50
2022-12-19T09:06:19.104Z,8.30
2022-12-19T09:08:47.071Z,8.10
2022-12-19T09:11:16.734Z,7.28
2022-12-19T09:13:45.047Z,7.78
2022-12-19T09:16:22.126Z,7.32
2022-12-19T09:18:52.546Z,6.35
2022-12-19T09:21:21.613Z,5.93
2022-12-19T09:23:50.355Z,6.78
2022-12-19T09:26:18.394Z,5.82
2022-12-19T09:28:47.544Z,6.85
2022-12-19T09:31:20.406Z,5.25
2022-12-19T09:33:48.026Z,4.78
2022-12-19T09:36:21.517Z,5.07
2022-12-19T09:38:48.813Z,4.40
2022-12-19T09:41:48.677Z,5.13
2022-12-19T09:44:28.299Z,4.25
2022-12-19T09:47:10.287Z,4.85
2022-12-19T09:49:42.111Z,4.60
2022-12-19T09:52:26.014Z,3.92
2022-12-19T09:54:58.738Z,4.63
2022-12-19T09:57:49.885Z,4.20
2022-12-19T10:00:22.648Z,3.55
2022-12-19T10:03:24.814Z,4.22
2022-12-19T10:07:15.825Z,3.58
2022-12-19T10:09:43.968Z,3.75
2022-12-19T10:12:39.749Z,4.07
2022-12-19T10:15:07.612Z,3.40
2022-12-19T10:18:01.815Z,4.13
2022-12-19T10:20:34.420Z,3.72
2022-12-19T10:23:26.189Z,4.00
2022-12-19T10:25:56.091Z,4.07
2022-12-19T10:29:02.580Z,4.22
2022-12-19T10:31:35.306Z,4.63
2022-12-19T10:34:23.445Z,4.05
2022-12-19T10:39:55.461Z,5.05
2022-12-19T10:42:32.712Z,5.75
2022-12-19T10:45:06.528Z,5.45
2022-12-19T10:47:33.479Z,5.93
2022-12-19T10:50:05.473Z,6.30
2022-12-19T10:52:57.112Z,5.88
2022-12-19T10:55:33.755Z,6.20
2022-12-19T10:58:11.078Z,6.45
2022-12-19T11:00:38.958Z,5.88
2022-12-19T11:03:16.780Z,6.97
2022-12-19T11:05:58.164Z,7.43
2022-12-19T11:08:27.005Z,7.05
2022-12-19T11:13:33.810Z,7.50
2022-12-19T11:17:33.598Z,7.47
2022-12-19T11:24:34.943Z,8.90
2022-12-19T11:29:31.732Z,8.93
2022-12-19T11:29:35.109Z,8.27
2022-12-19T11:29:37.375Z,8.57
2022-12-19T11:30:59.580Z,8.63
2022-12-19T11:34:21.545Z,9.30
2022-12-19T11:36:52.033Z,10.15
2022-12-19T11:39:23.476Z,8.98
2022-12-19T11:42:03.437Z,11.15
2022-12-19T11:44:37.583Z,10.27
2022-12-19T11:47:30.534Z,10.00
2022-12-19T11:50:10.209Z,10.48
2022-12-19T11:55:48.815Z,10.88
2022-12-19T12:01:02.662Z,11.77
2022-12-19T12:03:35.605Z,11.38
2022-12-19T12:06:11.949Z,11.30
2022-12-19T12:11:34.952Z,13.27
2022-12-19T12:17:57.156Z,11.32
2022-12-19T12:27:49.082Z,13.35
2022-12-19T12:31:13.019Z,10.98
2022-12-19T12:31:18.383Z,11.30
2022-12-19T12:31:40.923Z,12.90
2022-12-19T12:31:42.780Z,12.05
2022-12-19T12:31:50.278Z,13.07
2022-12-19T12:35:48.611Z,11.38
2022-12-19T12:39:07.240Z,9.48
2022-12-19T12:42:05.969Z,12.55
2022-12-19T12:44:45.532Z,12.75
2022-12-19T12:47:30.511Z,12.85
2022-12-19T12:50:09.268Z,13.00
2022-12-19T12:52:44.008Z,12.27
2022-12-19T12:55:32.171Z,12.57
2022-12-19T12:57:59.590Z,12.70
2022-12-19T13:00:29.463Z,13.85
2022-12-19T13:02:56.810Z,13.25
2022-12-19T13:05:41.028Z,14.05
2022-12-19T13:08:31.295Z,12.20
2022-12-19T13:11:01.592Z,12.57
2022-12-19T13:13:51.865Z,13.80
2022-12-19T13:16:43.873Z,11.68
2022-12-19T13:19:24.108Z,13.25
2022-12-19T13:22:09.613Z,12.65
2022-12-19T13:24:50.612Z,13.30
2022-12-19T13:27:20.619Z,13.55
2022-12-19T13:30:01.448Z,12.35
2022-12-19T13:32:40.806Z,13.07
2022-12-19T13:36:19.123Z,13.77
2022-12-19T13:39:59.626Z,13.63
2022-12-19T13:41:24.421Z,12.70
2022-12-19T13:43:51.573Z,14.07
2022-12-19T13:46:39.757Z,13.10
2022-12-19T13:49:17.780Z,12.15
2022-12-19T13:51:48.906Z,14.02
2022-12-19T13:54:23.086Z,13.73
2022-12-19T13:56:52.237Z,12.93
2022-12-19T13:59:21.549Z,14.15
2022-12-19T14:01:50.939Z,13.07
2022-12-19T14:04:33.251Z,13.23
2022-12-19T14:07:03.872Z,14.30
2022-12-19T14:11:29.237Z,13.85
2022-12-19T14:13:43.271Z,13.82
2022-12-19T14:15:52.096Z,14.13
2022-12-19T14:18:45.355Z,13.35
2022-12-19T14:22:05.444Z,12.43
2022-12-19T14:24:21.129Z,13.88
2022-12-19T14:28:20.040Z,13.30
2022-12-19T14:30:26.670Z,14.32
2022-12-19T14:33:46.718Z,14.68
2022-12-19T14:36:10.095Z,13.65
2022-12-19T14:39:21.974Z,13.90
2022-12-19T14:41:09.308Z,12.52
2022-12-19T14:43:57.456Z,13.15
2022-12-19T14:53:52.383Z,13.55
2022-12-19T14:54:10.513Z,13.98
2022-12-19T14:54:20.956Z,12.80
2022-12-19T14:56:17.521Z,12.93
2022-12-19T14:58:54.818Z,14.15
2022-12-19T15:01:24.204Z,13.43
2022-12-19T15:04:53.134Z,13.15
2022-12-19T15:07:15.268Z,14.35
2022-12-19T15:11:05.553Z,13.73
2022-12-19T15:14:51.498Z,14.07
2022-12-19T15:16:01.423Z,14.55
2022-12-19T15:18:39.966Z,17.73
2022-12-19T15:21:12.825Z,13.73
2022-12-19T15:23:40.612Z,14.35
2022-12-19T15:26:16.406Z,13.50
2022-12-19T15:28:48.477Z,14.10
2022-12-19T15:31:34.863Z,13.30
2022-12-19T15:34:38.346Z,14.30
2022-12-19T15:37:06.911Z,14.55
2022-12-19T15:39:33.836Z,13.52
2022-12-19T15:42:01.575Z,15.23
2022-12-19T15:44:41.363Z,13.68
2022-12-19T15:47:20.249Z,14.07
2022-12-19T15:49:47.350Z,13.63
2022-12-19T15:52:20.018Z,13.82
2022-12-19T15:54:48.921Z,13.63
2022-12-19T15:57:37.918Z,13.38
2022-12-19T16:00:08.447Z,15.13
2022-12-19T16:03:13.250Z,15.13
2022-12-19T16:05:25.455Z,14.25
2022-12-19T16:07:52.702Z,12.80
2022-12-19T16:10:19.708Z,14.23
2022-12-19T16:12:51.216Z,13.48
2022-12-19T16:15:34.793Z,13.07
2022-12-19T16:18:03.576Z,13.93
2022-12-19T16:20:39.502Z,14.20
2022-12-19T16:23:07.290Z,14.88
2022-12-19T16:25:46.256Z,14.02
2022-12-19T16:28:35.061Z,13.98
2022-12-19T16:31:16.575Z,13.05
2022-12-19T16:33:43.672Z,14.88
2022-12-19T16:36:10.489Z,12.93
2022-12-19T16:38:37.466Z,13.23
2022-12-19T16:41:04.470Z,14.63
2022-12-19T16:43:40.964Z,14.98
2022-12-19T16:46:12.700Z,15.18
2022-12-19T16:48:41.388Z,14.45
2022-12-19T16:51:18.295Z,14.35
2022-12-19T16:53:45.218Z,13.68
2022-12-19T16:56:25.562Z,14.93
2022-12-19T16:58:53.287Z,14.98
2022-12-19T17:01:21.020Z,14.88
2022-12-19T17:03:48.264Z,13.73
2022-12-19T17:06:20.015Z,14.15
2022-12-19T17:08:46.823Z,14.60
2022-12-19T17:11:31.908Z,14.75
2022-12-19T17:14:10.314Z,16.42
2022-12-19T17:16:37.954Z,15.60
2022-12-19T17:19:04.918Z,15.55
2022-12-19T17:21:32.076Z,16.35
2022-12-19T17:23:59.083Z,16.10
2022-12-19T17:26:26.124Z,15.82
2022-12-19T17:28:53.409Z,17.40
2022-12-19T17:31:29.312Z,17.58
2022-12-19T17:33:58.384Z,17.75
2022-12-19T17:36:36.499Z,16.80
2022-12-19T17:39:31.962Z,16.98
2022-12-19T17:42:17.069Z,12.10
2022-12-19T17:47:16.187Z,15.45
2022-12-19T17:49:43.771Z,17.00
2022-12-19T17:52:19.530Z,18.65
2022-12-19T17:54:46.760Z,17.10
2022-12-19T17:57:15.521Z,18.38
2022-12-19T17:59:42.785Z,18.42
2022-12-19T18:02:39.461Z,19.48
2022-12-19T18:05:07.223Z,18.42
2022-12-19T18:07:34.108Z,19.75
2022-12-19T18:10:01.104Z,21.42
2022-12-19T18:12:28.154Z,20.58
2022-12-19T18:14:54.892Z,20.90
2022-12-19T18:17:26.047Z,19.95
2022-12-19T18:19:53.080Z,20.20
2022-12-19T18:22:20.055Z,21.80
2022-12-19T18:24:47.092Z,19.58
2022-12-19T18:27:14.061Z,19.15
2022-12-19T18:29:41.361Z,17.90
2022-12-19T18:32:17.898Z,20.73
2022-12-19T18:34:45.037Z,21.75
2022-12-19T18:37:15.244Z,21.20
2022-12-19T18:39:42.090Z,20.35
2022-12-19T18:42:22.069Z,20.42
2022-12-19T18:44:49.012Z,21.45
2022-12-19T18:47:23.587Z,21.08
2022-12-19T18:49:52.404Z,22.63
2022-12-19T18:52:19.323Z,22.63
2022-12-19T18:54:46.436Z,24.40
2022-12-19T18:57:14.598Z,21.30
2022-12-19T18:59:41.965Z,21.65
2022-12-19T19:02:27.176Z,22.33
2022-12-19T19:04:55.910Z,21.42
2022-12-19T19:07:22.914Z,23.67
2022-12-19T19:09:49.960Z,23.00
2022-12-19T19:12:16.910Z,21.45
2022-12-19T19:14:43.897Z,21.27
2022-12-19T19:17:23.714Z,22.70
2022-12-19T19:19:50.452Z,22.08
2022-12-19T19:22:17.368Z,23.25
2022-12-19T19:24:44.287Z,24.08
2022-12-19T19:27:11.217Z,21.02
2022-12-19T19:29:39.086Z,22.67
2022-12-19T19:32:06.060Z,23.75
2022-12-19T19:34:37.564Z,20.95
2022-12-19T19:37:08.219Z,24.02
2022-12-19T19:39:35.370Z,23.33
2022-12-19T19:42:02.988Z,22.40
2022-12-19T19:44:30.367Z,23.92
2022-12-19T19:46:57.352Z,23.10
2022-12-19T19:49:24.675Z,20.63
2022-12-19T19:51:55.730Z,21.70
2022-12-19T19:54:27.336Z,21.42
2022-12-19T19:56:55.030Z,21.10
2022-12-19T19:59:22.141Z,22.80
2022-12-19T20:01:49.121Z,23.23
2022-12-19T20:04:16.215Z,22.77
2022-12-19T20:06:43.054Z,21.65
2022-12-19T20:09:09.976Z,22.13
2022-12-19T20:11:36.900Z,22.67
2022-12-19T20:14:04.764Z,20.67
2022-12-19T20:16:31.809Z,20.13
2022-12-19T20:18:58.652Z,22.48
2022-12-19T20:21:25.731Z,22.23
2022-12-19T20:23:52.638Z,21.73
2022-12-19T20:26:19.707Z,21.42
2022-12-19T20:28:49.335Z,20.65
2022-12-19T20:31:22.370Z,20.40
2022-12-19T20:33:50.789Z,21.05
2022-12-19T20:36:17.871Z,21.30
2022-12-19T20:38:45.364Z,20.42
2022-12-19T20:41:12.971Z,20.00
2022-12-19T20:43:40.081Z,20.35
2022-12-19T20:46:13.188Z,19.45
2022-12-19T20:48:40.805Z,21.10
2022-12-19T20:51:08.831Z,20.35
2022-12-19T20:53:37.976Z,19.85
2022-12-19T20:56:06.445Z,20.88
2022-12-19T20:58:36.155Z,19.08
2022-12-19T21:01:12.184Z,17.63
2022-12-19T21:03:40.395Z,20.52
2022-12-19T21:06:08.904Z,17.85
2022-12-19T21:08:36.307Z,19.63
2022-12-19T21:11:04.149Z,19.73
2022-12-19T21:13:31.508Z,17.25
2022-12-19T21:16:03.170Z,17.23
2022-12-19T21:18:30.910Z,17.58
2022-12-19T21:20:59.393Z,15.93
2022-12-19T21:23:27.386Z,16.85
2022-12-19T21:26:09.068Z,17.10
2022-12-19T21:28:35.934Z,16.73
2022-12-19T21:31:12.003Z,16.65
2022-12-19T21:33:38.976Z,15.00
2022-12-19T21:36:11.871Z,17.20
2022-12-19T21:38:39.245Z,15.35
2022-12-19T21:41:07.730Z,15.35
2022-12-19T21:43:35.578Z,15.75
2022-12-19T21:46:07.335Z,14.95
2022-12-19T21:48:45.768Z,15.30
2022-12-19T21:51:14.370Z,15.90
2022-12-19T21:53:41.835Z,16.05
2022-12-19T21:56:22.220Z,14.93
2022-12-19T21:58:51.599Z,14.15
2022-12-19T22:01:18.952Z,16.25
2022-12-19T22:03:46.221Z,15.40
2022-12-19T22:06:23.966Z,16.60
2022-12-19T22:08:54.275Z,15.15
2022-12-19T22:11:22.718Z,14.35
2022-12-19T22:13:50.679Z,13.98
2022-12-19T22:16:18.232Z,15.05
2022-12-19T22:18:45.579Z,15.10
2022-12-19T22:21:14.621Z,15.07
2022-12-19T22:23:42.559Z,15.40
2022-12-19T22:26:11.584Z,13.63
2022-12-19T22:28:40.380Z,14.32
2022-12-19T22:31:22.168Z,14.90
2022-12-19T22:33:51.398Z,15.15
2022-12-19T22:36:25.756Z,15.50
2022-12-19T22:38:55.165Z,17.05
2022-12-19T22:41:22.396Z,15.65
2022-12-19T22:43:49.193Z,16.33
2022-12-19T22:46:28.536Z,15.85
2022-12-19T22:48:57.872Z,14.55
2022-12-19T22:51:25.546Z,14.77
2022-12-19T22:53:52.577Z,14.50
2022-12-19T22:56:22.222Z,15.20
2022-12-19T22:58:51.435Z,14.88
2022-12-19T23:01:19.639Z,13.65
2022-12-19T23:03:48.872Z,14.18
2022-12-19T23:06:16.776Z,14.25
2022-12-19T23:08:44.011Z,14.20
2022-12-19T23:11:14.179Z,14.73
2022-12-19T23:13:42.378Z,14.10
2022-12-19T23:16:10.473Z,13.93
2022-12-19T23:18:37.884Z,14.50
2022-12-19T23:21:18.837Z,13.93
2022-12-19T23:23:48.792Z,14.30
2022-12-19T23:26:18.515Z,13.23
2022-12-19T23:29:01.240Z,14.23
2022-12-19T23:31:29.165Z,13.60
2022-12-19T23:33:56.415Z,14.43
2022-12-19T23:37:00.507Z,13.50
2022-12-19T23:39:11.948Z,13.20
2022-12-19T23:41:39.294Z,15.15
2022-12-19T23:44:06.229Z,13.68
2022-12-19T23:46:33.289Z,13.85
2022-12-19T23:49:00.054Z,14.60
2022-12-19T23:51:28.412Z,14.30
2022-12-19T23:53:56.428Z,14.45
2022-12-19T23:56:25.813Z,14.40
2022-12-19T23:58:53.184Z,14.43
